createdAt,value
2019-05-28T00:01:37.865Z,-77
2019-05-28T00:04:07.696Z,-78
2019-05-28T00:06:37.343Z,-76
2019-05-28T00:09:09.499Z,-76
2019-05-28T00:11:39.267Z,-74
2019-05-28T00:14:08.982Z,-76
2019-05-28T00:16:38.655Z,-76
2019-05-28T00:19:08.492Z,-77
2019-05-28T00:21:38.155Z,-76
2019-05-28T00:24:07.891Z,-75
2019-05-28T00:26:37.924Z,-75
2019-05-28T00:29:07.652Z,-75
2019-05-28T00:31:37.330Z,-76
2019-05-28T00:34:06.992Z,-75
2019-05-28T00:36:36.692Z,-75
2019-05-28T00:39:08.471Z,-75
2019-05-28T00:41:38.285Z,-75
2019-05-28T00:44:08.161Z,-75
2019-05-28T00:46:37.890Z,-74
2019-05-28T00:49:07.729Z,-74
2019-05-28T00:51:38.332Z,-75
2019-05-28T00:54:08.079Z,-75
2019-05-28T00:56:39.003Z,-76
2019-05-28T00:59:09.676Z,-75
2019-05-28T01:01:39.320Z,-75
2019-05-28T01:04:08.984Z,-75
2019-05-28T01:06:38.659Z,-77
2019-05-28T01:09:09.355Z,-76
2019-05-28T01:11:39.113Z,-76
2019-05-28T01:14:08.840Z,-76
2019-05-28T01:16:38.570Z,-76
2019-05-28T01:19:08.202Z,-76
2019-05-28T01:21:37.893Z,-76
2019-05-28T01:24:07.563Z,-76
2019-05-28T01:26:37.296Z,-75
2019-05-28T01:29:07.070Z,-75
2019-05-28T01:31:36.752Z,-76
2019-05-28T01:34:06.515Z,-74
2019-05-28T01:36:36.192Z,-74
2019-05-28T01:39:08.084Z,-75
2019-05-28T01:41:37.754Z,-76
2019-05-28T01:44:07.560Z,-76
2019-05-28T01:46:37.239Z,-76
2019-05-28T01:49:06.923Z,-75
2019-05-28T01:51:36.637Z,-76
2019-05-28T01:54:06.430Z,-76
2019-05-28T01:56:36.126Z,-75
2019-05-28T01:59:05.850Z,-75
2019-05-28T02:01:35.702Z,-75
2019-05-28T02:04:06.181Z,-75
2019-05-28T02:06:35.857Z,-74
2019-05-28T02:09:08.037Z,-75
2019-05-28T02:11:37.726Z,-75
2019-05-28T02:14:07.555Z,-76
2019-05-28T02:16:37.328Z,-75
2019-05-28T02:19:07.007Z,-75
2019-05-28T02:21:36.746Z,-75
2019-05-28T02:24:06.719Z,-76
2019-05-28T02:26:36.391Z,-76
2019-05-28T02:29:06.307Z,-75
2019-05-28T02:31:36.122Z,-76
2019-05-28T02:34:05.941Z,-75
2019-05-28T02:36:35.622Z,-76
2019-05-28T02:39:08.663Z,-74
2019-05-28T02:41:38.528Z,-76
2019-05-28T02:44:08.346Z,-75
2019-05-28T02:46:38.044Z,-75
2019-05-28T02:49:07.811Z,-76
2019-05-28T02:51:38.043Z,-75
2019-05-28T02:54:07.765Z,-75
2019-05-28T02:56:40.108Z,-75
2019-05-28T02:59:13.830Z,-75
2019-05-28T03:01:45.705Z,-74
2019-05-28T03:04:18.305Z,-73
2019-05-28T03:06:50.941Z,-74
2019-05-28T03:09:23.844Z,-75
2019-05-28T03:11:53.503Z,-75
2019-05-28T03:14:23.187Z,-76
2019-05-28T03:16:57.461Z,-76
2019-05-28T03:19:30.168Z,-75
2019-05-28T03:22:03.256Z,-76
2019-05-28T03:24:35.808Z,-75
2019-05-28T03:27:05.690Z,-78
2019-05-28T03:29:35.523Z,-78
2019-05-28T03:32:08.590Z,-77
2019-05-28T03:34:36.932Z,-76
2019-05-28T03:37:07.453Z,-77
2019-05-28T03:39:41.732Z,-77
2019-05-28T03:42:11.364Z,-78
2019-05-28T03:44:41.010Z,-77
2019-05-28T03:47:10.686Z,-77
2019-05-28T03:49:40.358Z,-77
2019-05-28T03:52:10.033Z,-77
2019-05-28T03:54:39.707Z,-77
2019-05-28T03:57:09.452Z,-77
2019-05-28T03:59:39.132Z,-77
2019-05-28T04:02:22.670Z,-77
2019-05-28T04:04:40.231Z,-77
2019-05-28T04:07:09.878Z,-77
2019-05-28T04:09:39.544Z,-77
2019-05-28T04:12:09.275Z,-77
2019-05-28T04:14:38.968Z,-77
2019-05-28T04:17:08.700Z,-77
2019-05-28T04:19:38.393Z,-77
2019-05-28T04:22:08.154Z,-78
2019-05-28T04:24:37.926Z,-76
2019-05-28T04:27:07.655Z,-77
2019-05-28T04:29:37.419Z,-77
2019-05-28T04:32:07.495Z,-77
2019-05-28T04:34:37.217Z,-77
2019-05-28T04:37:06.890Z,-78
2019-05-28T04:39:36.595Z,-77
2019-05-28T04:42:06.498Z,-77
2019-05-28T04:44:36.243Z,-77
2019-05-28T04:47:08.457Z,-76
2019-05-28T04:49:37.303Z,-77
2019-05-28T04:52:07.294Z,-77
2019-05-28T04:54:36.964Z,-78
2019-05-28T04:57:06.630Z,-77
2019-05-28T04:59:36.511Z,-78
2019-05-28T05:02:06.145Z,-78
2019-05-28T05:04:35.811Z,-77
2019-05-28T05:07:05.556Z,-78
2019-05-28T05:09:35.193Z,-77
2019-05-28T05:12:05.095Z,-75
2019-05-28T05:14:34.893Z,-75
2019-05-28T05:19:43.408Z,-84
2019-05-28T05:22:13.333Z,-83
2019-05-28T05:24:43.122Z,-83
2019-05-28T05:27:13.004Z,-83
2019-05-28T05:29:42.846Z,-84
2019-05-28T05:32:12.549Z,-83
2019-05-28T05:34:42.757Z,-84
2019-05-28T05:37:12.762Z,-86
2019-05-28T05:39:43.178Z,-86
2019-05-28T05:42:13.046Z,-83
2019-05-28T05:44:43.036Z,-84
2019-05-28T05:47:13.173Z,-84
2019-05-28T05:49:43.243Z,-85
2019-05-28T05:52:12.912Z,-83
2019-05-28T05:54:42.948Z,-84
2019-05-28T05:57:12.693Z,-82
2019-05-28T05:59:42.535Z,-83
2019-05-28T06:02:12.201Z,-82
2019-05-28T06:04:42.104Z,-84
2019-05-28T06:07:11.829Z,-85
2019-05-28T06:09:41.500Z,-86
2019-05-28T06:12:11.389Z,-84
2019-05-28T06:14:41.095Z,-84
2019-05-28T06:17:10.930Z,-84
2019-05-28T06:19:40.825Z,-82
2019-05-28T06:22:10.656Z,-82
2019-05-28T06:24:40.558Z,-84
2019-05-28T06:27:10.440Z,-85
2019-05-28T06:29:40.319Z,-86
2019-05-28T06:32:10.263Z,-85
2019-05-28T06:34:40.180Z,-83
2019-05-28T06:37:10.004Z,-83
2019-05-28T06:39:39.915Z,-84
2019-05-28T06:42:09.843Z,-86
2019-05-28T06:44:39.687Z,-85
2019-05-28T06:47:09.713Z,-85
2019-05-28T06:49:39.538Z,-84
2019-05-28T06:52:09.277Z,-84
2019-05-28T06:54:39.105Z,-83
2019-05-28T06:57:22.211Z,-83
2019-05-28T06:59:40.579Z,-83
2019-05-28T07:02:10.460Z,-82
2019-05-28T07:04:40.131Z,-83
2019-05-28T07:07:09.955Z,-83
2019-05-28T07:09:39.643Z,-84
2019-05-28T07:12:09.493Z,-83
2019-05-28T07:14:39.283Z,-84
2019-05-28T07:17:09.116Z,-83
2019-05-28T07:19:38.809Z,-86
2019-05-28T07:22:08.496Z,-83
2019-05-28T07:24:38.280Z,-83
2019-05-28T07:27:08.110Z,-82
2019-05-28T07:29:37.879Z,-84
2019-05-28T07:32:07.583Z,-84
2019-05-28T07:34:37.472Z,-83
2019-05-28T07:37:07.333Z,-85
2019-05-28T07:39:37.553Z,-85
2019-05-28T07:42:07.225Z,-85
2019-05-28T07:44:37.003Z,-86
2019-05-28T07:47:10.752Z,-83
2019-05-28T07:49:38.283Z,-84
2019-05-28T07:52:08.104Z,-86
2019-05-28T07:54:39.487Z,-84
2019-05-28T07:57:09.415Z,-84
2019-05-28T07:59:42.589Z,-85
2019-05-28T08:02:12.507Z,-84
2019-05-28T08:04:47.128Z,-83
2019-05-28T08:07:14.372Z,-83
2019-05-28T08:09:44.098Z,-88
2019-05-28T08:12:14.224Z,-85
2019-05-28T08:14:44.270Z,-87
2019-05-28T08:17:14.106Z,-86
2019-05-28T08:19:44.202Z,-84
2019-05-28T08:22:13.989Z,-82
2019-05-28T08:24:43.627Z,-82
2019-05-28T08:27:13.395Z,-85
2019-05-28T08:29:45.593Z,-86
2019-05-28T08:32:14.838Z,-85
2019-05-28T08:34:44.701Z,-86
2019-05-28T08:37:14.452Z,-86
2019-05-28T08:39:44.209Z,-83
2019-05-28T08:42:13.963Z,-85
2019-05-28T08:44:43.753Z,-85
2019-05-28T08:47:13.504Z,-84
2019-05-28T08:49:43.252Z,-84
2019-05-28T08:52:13.035Z,-86
2019-05-28T08:54:42.750Z,-84
2019-05-28T08:57:12.767Z,-84
2019-05-28T08:59:42.528Z,-84
2019-05-28T09:02:27.391Z,-85
2019-05-28T09:04:43.753Z,-82
2019-05-28T09:07:13.560Z,-84
2019-05-28T09:09:43.293Z,-87
2019-05-28T09:12:13.059Z,-85
2019-05-28T09:14:55.937Z,-84
2019-05-28T09:17:14.503Z,-85
2019-05-28T09:19:44.314Z,-83
2019-05-28T09:22:25.210Z,-84
2019-05-28T09:24:45.647Z,-83
2019-05-28T09:27:15.729Z,-85
2019-05-28T09:29:45.441Z,-84
2019-05-28T09:32:15.176Z,-84
2019-05-28T09:34:44.903Z,-83
2019-05-28T09:37:14.552Z,-85
2019-05-28T09:39:44.238Z,-85
2019-05-28T09:42:14.009Z,-84
2019-05-28T09:44:43.886Z,-84
2019-05-28T09:47:13.705Z,-84
2019-05-28T09:49:43.685Z,-84
2019-05-28T09:52:13.546Z,-83
2019-05-28T09:54:43.356Z,-83
2019-05-28T09:57:13.114Z,-83
2019-05-28T09:59:42.954Z,-84
2019-05-28T10:02:12.822Z,-83
2019-05-28T10:04:49.027Z,-83
2019-05-28T10:07:14.248Z,-84
2019-05-28T10:09:45.277Z,-86
2019-05-28T10:12:15.464Z,-82
2019-05-28T10:14:45.349Z,-83
2019-05-28T10:17:15.176Z,-83
2019-05-28T10:19:44.913Z,-83
2019-05-28T10:22:14.821Z,-83
2019-05-28T10:24:45.526Z,-84
2019-05-28T10:27:15.461Z,-83
2019-05-28T10:29:45.194Z,-83
2019-05-28T10:32:15.048Z,-83
2019-05-28T10:35:02.712Z,-84
2019-05-28T10:37:16.325Z,-84
2019-05-28T10:39:46.108Z,-84
2019-05-28T10:42:15.922Z,-85
2019-05-28T10:44:45.886Z,-83
2019-05-28T10:47:15.865Z,-86
2019-05-28T10:49:45.837Z,-85
2019-05-28T10:52:15.734Z,-86
2019-05-28T10:54:45.568Z,-87
2019-05-28T10:57:15.389Z,-84
2019-05-28T10:59:45.215Z,-84
2019-05-28T11:02:15.152Z,-82
2019-05-28T11:04:44.882Z,-82
2019-05-28T11:07:14.781Z,-83
2019-05-28T11:09:44.605Z,-82
2019-05-28T11:12:14.471Z,-82
2019-05-28T11:14:44.189Z,-82
2019-05-28T11:17:14.183Z,-87
2019-05-28T11:19:43.891Z,-84
2019-05-28T11:22:13.661Z,-85
2019-05-28T11:24:43.366Z,-84
2019-05-28T11:27:13.223Z,-85
2019-05-28T11:29:43.190Z,-83
2019-05-28T11:32:13.077Z,-83
2019-05-28T11:34:42.841Z,-85
2019-05-28T11:37:13.418Z,-87
2019-05-28T11:39:43.690Z,-81
2019-05-28T11:42:14.822Z,-82
2019-05-28T11:44:44.593Z,-83
2019-05-28T11:47:14.401Z,-83
2019-05-28T11:49:44.140Z,-85
2019-05-28T11:52:13.901Z,-83
2019-05-28T11:54:43.771Z,-84
2019-05-28T11:57:13.743Z,-83
2019-05-28T11:59:43.497Z,-86
2019-05-28T12:02:13.350Z,-85
2019-05-28T12:04:43.161Z,-85
2019-05-28T12:07:25.517Z,-84
2019-05-28T12:09:44.307Z,-87
2019-05-28T12:12:14.161Z,-83
2019-05-28T12:14:43.984Z,-83
2019-05-28T12:17:13.877Z,-88
2019-05-28T12:19:43.637Z,-85
2019-05-28T12:22:15.396Z,-85
2019-05-28T12:24:45.070Z,-85
2019-05-28T12:27:15.779Z,-85
2019-05-28T12:29:52.075Z,-83
2019-05-28T12:32:17.642Z,-85
2019-05-28T12:34:50.666Z,-83
2019-05-28T12:37:20.377Z,-86
2019-05-28T12:39:50.437Z,-85
2019-05-28T12:42:20.153Z,-86
2019-05-28T12:45:08.280Z,-84
2019-05-28T12:47:21.303Z,-85
2019-05-28T12:49:51.154Z,-85
2019-05-28T12:52:20.855Z,-85
2019-05-28T12:54:50.668Z,-86
2019-05-28T12:57:20.369Z,-86
2019-05-28T12:59:50.006Z,-84
2019-05-28T13:02:19.760Z,-85
2019-05-28T13:04:49.408Z,-87
2019-05-28T13:07:19.164Z,-86
2019-05-28T13:09:49.455Z,-85
2019-05-28T13:12:19.409Z,-85
2019-05-28T13:14:49.570Z,-86
2019-05-28T13:17:19.516Z,-84
2019-05-28T13:19:49.278Z,-85
2019-05-28T13:22:19.071Z,-85
2019-05-28T13:24:48.745Z,-85
2019-05-28T13:27:18.743Z,-84
2019-05-28T13:29:48.440Z,-84
2019-05-28T13:32:18.310Z,-84
2019-05-28T13:34:48.186Z,-86
2019-05-28T13:37:19.108Z,-83
2019-05-28T13:39:49.066Z,-83
2019-05-28T13:42:19.055Z,-85
2019-05-28T13:44:48.811Z,-82
2019-05-28T13:47:33.132Z,-83
2019-05-28T13:49:50.271Z,-85
2019-05-28T13:52:20.261Z,-86
2019-05-28T13:54:49.985Z,-83
2019-05-28T13:57:19.672Z,-84
2019-05-28T13:59:49.366Z,-83
2019-05-28T14:02:19.203Z,-85
2019-05-28T14:04:48.913Z,-86
2019-05-28T14:07:18.569Z,-85
2019-05-28T14:09:48.262Z,-85
2019-05-28T14:12:18.161Z,-84
2019-05-28T14:14:47.998Z,-84
2019-05-28T14:17:17.752Z,-84
2019-05-28T14:19:47.701Z,-83
2019-05-28T14:22:32.880Z,-87
2019-05-28T14:24:48.946Z,-86
2019-05-28T14:27:18.872Z,-85
2019-05-28T14:29:48.842Z,-84
2019-05-28T14:32:18.697Z,-84
2019-05-28T14:34:52.257Z,-86
2019-05-28T14:37:20.264Z,-85
2019-05-28T14:39:50.040Z,-84
2019-05-28T14:42:19.735Z,-86
2019-05-28T14:44:50.102Z,-85
2019-05-28T14:47:20.001Z,-85
2019-05-28T14:49:49.776Z,-83
2019-05-28T14:52:19.471Z,-83
2019-05-28T14:54:49.239Z,-83
2019-05-28T14:57:19.068Z,-84
2019-05-28T14:59:48.864Z,-83
2019-05-28T15:02:18.743Z,-83
2019-05-28T15:04:48.421Z,-83
2019-05-28T15:07:18.245Z,-85
2019-05-28T15:09:49.850Z,-83
2019-05-28T15:12:19.525Z,-83
2019-05-28T15:14:49.418Z,-86
2019-05-28T15:17:19.112Z,-86
2019-05-28T15:19:48.878Z,-85
2019-05-28T15:22:18.571Z,-84
2019-05-28T15:24:49.893Z,-85
2019-05-28T15:27:20.111Z,-86
2019-05-28T15:30:11.806Z,-84
2019-05-28T15:32:41.614Z,-74
2019-05-28T15:35:13.756Z,-76
2019-05-28T15:37:43.529Z,-75
2019-05-28T15:40:13.486Z,-75
2019-05-28T15:42:43.297Z,-76
2019-05-28T15:45:14.145Z,-75
2019-05-28T15:47:45.104Z,-74
2019-05-28T15:50:15.832Z,-75
2019-05-28T15:52:45.868Z,-75
2019-05-28T15:55:15.782Z,-75
2019-05-28T15:57:45.635Z,-75
2019-05-28T16:00:23.763Z,-75
2019-05-28T16:02:53.811Z,-75
2019-05-28T16:05:23.665Z,-75
2019-05-28T16:07:53.369Z,-75
2019-05-28T16:10:23.231Z,-76
2019-05-28T16:12:52.976Z,-76
2019-05-28T16:15:22.904Z,-74
2019-05-28T16:17:52.593Z,-75
2019-05-28T16:20:22.484Z,-75
2019-05-28T16:22:52.148Z,-75
2019-05-28T16:25:22.239Z,-75
2019-05-28T16:27:52.032Z,-75
2019-05-28T16:30:23.333Z,-75
2019-05-28T16:32:52.988Z,-74
2019-05-28T16:35:22.822Z,-77
2019-05-28T16:37:52.457Z,-75
2019-05-28T16:40:22.248Z,-74
2019-05-28T16:42:51.923Z,-75
2019-05-28T16:45:22.467Z,-76
2019-05-28T16:47:52.164Z,-76
2019-05-28T16:50:22.226Z,-75
2019-05-28T16:52:51.887Z,-74
2019-05-28T16:55:22.629Z,-75
2019-05-28T16:57:52.482Z,-75
2019-05-28T17:00:22.517Z,-75
2019-05-28T17:02:52.336Z,-77
2019-05-28T17:05:21.961Z,-76
2019-05-28T17:07:51.670Z,-74
2019-05-28T17:10:32.507Z,-75
2019-05-28T17:12:52.919Z,-75
2019-05-28T17:15:22.742Z,-75
2019-05-28T17:17:52.380Z,-76
2019-05-28T17:20:22.173Z,-74
2019-05-28T17:22:55.167Z,-74
2019-05-28T17:25:23.539Z,-75
2019-05-28T17:27:53.219Z,-75
2019-05-28T17:30:24.473Z,-75
2019-05-28T17:32:54.526Z,-75
2019-05-28T17:35:24.237Z,-75
2019-05-28T17:37:53.901Z,-76
2019-05-28T17:40:23.536Z,-75
2019-05-28T17:42:53.313Z,-75
2019-05-28T17:45:23.195Z,-76
2019-05-28T17:47:52.888Z,-73
2019-05-28T17:50:23.550Z,-75
2019-05-28T17:52:53.281Z,-75
2019-05-28T17:55:22.943Z,-75
2019-05-28T17:57:52.726Z,-73
2019-05-28T18:00:22.476Z,-76
2019-05-28T18:02:52.165Z,-74
2019-05-28T18:05:21.897Z,-74
2019-05-28T18:07:51.607Z,-74
2019-05-28T18:10:21.679Z,-75
2019-05-28T18:12:51.321Z,-75
2019-05-28T18:15:21.059Z,-75
2019-05-28T18:17:50.798Z,-74
2019-05-28T18:20:20.991Z,-75
2019-05-28T18:22:50.676Z,-75
2019-05-28T18:25:20.893Z,-76
2019-05-28T18:27:50.733Z,-74
2019-05-28T18:30:21.811Z,-75
2019-05-28T18:32:51.448Z,-74
2019-05-28T18:35:21.257Z,-74
2019-05-28T18:37:50.898Z,-75
2019-05-28T18:40:20.845Z,-77
2019-05-28T18:42:50.511Z,-75
2019-05-28T18:45:20.781Z,-77
2019-05-28T18:47:50.417Z,-76
2019-05-28T18:50:20.383Z,-77
2019-05-28T18:52:50.051Z,-76
2019-05-28T18:55:19.860Z,-76
2019-05-28T18:57:51.094Z,-75
2019-05-28T19:00:20.935Z,-74
2019-05-28T19:02:50.601Z,-74
2019-05-28T19:05:20.774Z,-74
2019-05-28T19:07:50.437Z,-74
2019-05-28T19:10:20.320Z,-75
2019-05-28T19:12:50.044Z,-75
2019-05-28T19:15:20.589Z,-74
2019-05-28T19:17:50.367Z,-74
2019-05-28T19:20:20.983Z,-75
2019-05-28T19:22:50.619Z,-76
2019-05-28T19:25:20.831Z,-74
2019-05-28T19:27:50.509Z,-75
2019-05-28T19:30:33.068Z,-75
2019-05-28T19:33:05.147Z,-75
2019-05-28T19:35:35.068Z,-75
2019-05-28T19:38:05.271Z,-75
2019-05-28T19:40:42.021Z,-75
2019-05-28T19:43:11.722Z,-74
2019-05-28T19:45:41.495Z,-74
2019-05-28T19:48:11.247Z,-75
2019-05-28T19:50:40.885Z,-73
2019-05-28T19:53:10.625Z,-74
2019-05-28T19:55:40.361Z,-75
2019-05-28T19:58:10.204Z,-76
2019-05-28T20:00:40.089Z,-75
2019-05-28T20:03:09.817Z,-75
2019-05-28T20:05:39.569Z,-74
2019-05-28T20:08:09.533Z,-75
2019-05-28T20:10:39.487Z,-74
2019-05-28T20:13:09.174Z,-76
2019-05-28T20:15:38.835Z,-75
2019-05-28T20:18:23.910Z,-75
2019-05-28T20:20:40.125Z,-75
2019-05-28T20:23:09.944Z,-76
2019-05-28T20:25:39.598Z,-73
2019-05-28T20:28:09.357Z,-75
2019-05-28T20:30:39.177Z,-75
2019-05-28T20:33:09.466Z,-75
2019-05-28T20:35:39.382Z,-77
2019-05-28T20:38:12.245Z,-75
2019-05-28T20:40:40.573Z,-74
2019-05-28T20:43:10.353Z,-74
2019-05-28T20:45:40.048Z,-74
2019-05-28T20:48:10.792Z,-74
2019-05-28T20:50:40.613Z,-75
2019-05-28T20:53:10.443Z,-74
2019-05-28T20:55:40.223Z,-74
2019-05-28T20:58:09.881Z,-75
2019-05-28T21:00:39.585Z,-73
2019-05-28T21:03:09.334Z,-75
2019-05-28T21:05:39.075Z,-77
2019-05-28T21:08:08.768Z,-76
2019-05-28T21:10:38.502Z,-75
2019-05-28T21:13:08.238Z,-74
2019-05-28T21:15:37.973Z,-74
2019-05-28T21:18:07.737Z,-75
2019-05-28T21:20:37.603Z,-74
2019-05-28T21:23:07.239Z,-75
2019-05-28T21:25:36.999Z,-75
2019-05-28T21:28:06.765Z,-75
2019-05-28T21:30:36.391Z,-74
2019-05-28T21:33:06.209Z,-75
2019-05-28T21:35:35.879Z,-75
2019-05-28T21:38:05.847Z,-75
2019-05-28T21:40:35.524Z,-75
2019-05-28T21:43:09.646Z,-75
2019-05-28T21:45:36.748Z,-75
2019-05-28T21:48:06.718Z,-75
2019-05-28T21:50:36.426Z,-75
2019-05-28T21:53:06.507Z,-75
2019-05-28T21:55:36.245Z,-75
2019-05-28T21:58:06.110Z,-75
2019-05-28T22:00:50.023Z,-74
2019-05-28T22:03:19.757Z,-72
2019-05-28T22:05:49.519Z,-75
2019-05-28T22:08:19.233Z,-73
2019-05-28T22:10:48.889Z,-75
2019-05-28T22:13:22.423Z,-74
2019-05-28T22:15:50.015Z,-74
2019-05-28T22:18:19.932Z,-75
2019-05-28T22:20:49.588Z,-75
2019-05-28T22:23:19.267Z,-75
2019-05-28T22:25:48.991Z,-74
2019-05-28T22:28:18.688Z,-74
2019-05-28T22:30:48.570Z,-75
2019-05-28T22:33:18.398Z,-74
2019-05-28T22:35:48.133Z,-74
2019-05-28T22:38:17.811Z,-74
2019-05-28T22:40:47.551Z,-75
2019-05-28T22:43:30.778Z,-74
2019-05-28T22:45:48.787Z,-74
2019-05-28T22:48:18.585Z,-74
2019-05-28T22:50:48.239Z,-74
2019-05-28T22:53:17.903Z,-75
2019-05-28T22:55:47.587Z,-74
2019-05-28T22:58:17.239Z,-74
2019-05-28T23:00:46.917Z,-73
2019-05-28T23:03:16.678Z,-74
2019-05-28T23:05:46.321Z,-75
2019-05-28T23:08:15.968Z,-75
2019-05-28T23:10:46.501Z,-73
2019-05-28T23:13:16.157Z,-74
2019-05-28T23:15:45.926Z,-74
2019-05-28T23:18:15.637Z,-74
2019-05-28T23:20:45.301Z,-74
2019-05-28T23:23:15.035Z,-74
2019-05-28T23:25:44.682Z,-74
2019-05-28T23:28:14.365Z,-75
2019-05-28T23:30:44.001Z,-77
2019-05-28T23:33:14.270Z,-74
2019-05-28T23:35:44.504Z,-74
2019-05-28T23:38:14.258Z,-74
2019-05-28T23:40:44.054Z,-74
2019-05-28T23:43:13.876Z,-75
2019-05-28T23:45:43.811Z,-73
2019-05-28T23:48:17.851Z,-73
2019-05-28T23:50:45.033Z,-74
2019-05-28T23:53:14.697Z,-75
2019-05-28T23:55:44.585Z,-76
2019-05-28T23:58:14.294Z,-74
